createdAt,value
2023-04-14T00:00:13.776Z,0.95
2023-04-14T00:02:47.983Z,0.80
2023-04-14T00:05:20.448Z,1.00
2023-04-14T00:07:51.461Z,0.95
2023-04-14T00:10:22.630Z,1.27
2023-04-14T00:12:54.345Z,1.00
2023-04-14T00:15:27.700Z,1.13
2023-04-14T00:18:01.601Z,1.25
2023-04-14T00:20:32.838Z,1.05
2023-04-14T00:23:04.370Z,1.00
2023-04-14T00:25:34.977Z,1.23
2023-04-14T00:28:05.844Z,1.17
2023-04-14T00:30:36.559Z,1.10
2023-04-14T00:33:09.846Z,1.15
2023-04-14T00:35:40.739Z,1.70
2023-04-14T00:38:12.291Z,1.48
2023-04-14T00:40:43.198Z,1.33
2023-04-14T00:43:14.674Z,1.63
2023-04-14T00:45:49.696Z,1.55
2023-04-14T00:48:24.747Z,1.50
2023-04-14T00:50:55.923Z,1.58
2023-04-14T00:53:27.550Z,1.95
2023-04-14T00:55:58.357Z,1.50
2023-04-14T00:58:29.846Z,1.60
2023-04-14T01:01:01.936Z,1.70
2023-04-14T01:03:36.402Z,1.63
2023-04-14T01:06:08.020Z,1.85
2023-04-14T01:08:39.508Z,1.45
2023-04-14T01:11:17.210Z,1.38
2023-04-14T01:14:01.433Z,1.25
2023-04-14T01:16:35.816Z,1.02
2023-04-14T01:19:35.526Z,1.05
2023-04-14T01:22:09.745Z,1.40
2023-04-14T01:24:54.849Z,2.13
2023-04-14T01:27:38.865Z,1.65
2023-04-14T01:30:41.890Z,1.80
2023-04-14T01:33:21.219Z,1.30
2023-04-14T01:35:55.981Z,1.80
2023-04-14T01:38:31.576Z,1.60
2023-04-14T01:41:08.429Z,1.50
2023-04-14T01:43:45.351Z,1.88
2023-04-14T01:46:20.468Z,1.75
2023-04-14T01:48:54.329Z,2.10
2023-04-14T01:51:27.653Z,1.30
2023-04-14T01:54:00.279Z,1.35
2023-04-14T01:56:32.761Z,2.00
2023-04-14T01:59:05.358Z,1.60
2023-04-14T02:01:37.951Z,1.60
2023-04-14T02:04:11.907Z,1.75
2023-04-14T02:06:46.245Z,1.30
2023-04-14T02:09:18.489Z,1.23
2023-04-14T02:11:52.059Z,1.63
2023-04-14T02:14:24.722Z,1.38
2023-04-14T02:16:57.698Z,1.30
2023-04-14T02:19:33.067Z,1.63
2023-04-14T02:22:06.616Z,1.65
2023-04-14T02:24:37.770Z,1.48
2023-04-14T02:27:13.411Z,2.20
2023-04-14T02:29:48.239Z,1.63
2023-04-14T02:32:26.038Z,1.88
2023-04-14T02:35:12.391Z,1.55
2023-04-14T02:37:46.859Z,1.70
2023-04-14T02:40:21.317Z,2.08
2023-04-14T02:42:59.157Z,1.88
2023-04-14T02:45:33.856Z,1.95
2023-04-14T02:48:11.222Z,1.60
2023-04-14T02:50:49.352Z,2.50
2023-04-14T02:53:26.816Z,2.42
2023-04-14T02:56:14.282Z,1.80
2023-04-14T03:01:23.033Z,1.70
2023-04-14T03:03:58.645Z,2.33
2023-04-14T03:09:07.923Z,1.60
2023-04-14T03:11:41.443Z,1.35
2023-04-14T03:14:14.756Z,1.38
2023-04-14T03:16:46.794Z,2.20
2023-04-14T03:19:18.764Z,2.28
2023-04-14T03:21:54.888Z,2.75
2023-04-14T03:24:31.404Z,2.10
2023-04-14T03:27:07.774Z,1.60
2023-04-14T03:29:44.108Z,1.73
2023-04-14T03:32:18.135Z,1.70
2023-04-14T03:34:55.105Z,1.55
2023-04-14T03:37:30.244Z,2.13
2023-04-14T03:40:09.468Z,2.10
2023-04-14T03:42:45.055Z,2.35
2023-04-14T03:45:22.222Z,2.33
2023-04-14T03:47:57.928Z,2.58
2023-04-14T03:50:33.162Z,1.95
2023-04-14T03:53:09.670Z,2.03
2023-04-14T03:55:41.601Z,2.35
2023-04-14T03:58:16.208Z,1.50
2023-04-14T04:00:50.418Z,1.35
2023-04-14T04:03:23.076Z,1.52
2023-04-14T04:05:54.611Z,1.83
2023-04-14T04:08:30.116Z,1.92
2023-04-14T04:11:01.222Z,1.60
2023-04-14T04:13:34.046Z,1.70
2023-04-14T04:16:05.283Z,1.50
2023-04-14T04:18:44.164Z,1.30
2023-04-14T04:21:17.544Z,1.52
2023-04-14T04:23:56.534Z,1.40
2023-04-14T04:26:30.316Z,1.45
2023-04-14T04:29:02.274Z,1.30
2023-04-14T04:31:34.508Z,1.30
2023-04-14T04:34:06.451Z,1.23
2023-04-14T04:36:40.764Z,2.60
2023-04-14T04:39:14.149Z,3.47
2023-04-14T04:41:46.832Z,2.10
2023-04-14T04:44:17.475Z,3.50
2023-04-14T04:46:55.063Z,2.50
2023-04-14T04:49:31.911Z,2.25
2023-04-14T04:52:06.764Z,1.95
2023-04-14T04:54:40.814Z,2.05
2023-04-14T04:57:12.247Z,1.98
2023-04-14T04:59:43.201Z,1.90
2023-04-14T05:02:13.927Z,1.90
2023-04-14T05:04:44.962Z,2.92
2023-04-14T05:07:15.804Z,2.80
2023-04-14T05:09:49.324Z,2.63
2023-04-14T05:12:20.187Z,2.03
2023-04-14T05:14:52.030Z,2.22
2023-04-14T05:17:23.309Z,1.75
2023-04-14T05:19:54.026Z,1.58
2023-04-14T05:22:24.951Z,2.55
2023-04-14T05:24:58.888Z,2.08
2023-04-14T05:27:29.704Z,1.95
2023-04-14T05:30:03.258Z,1.90
2023-04-14T05:32:34.053Z,1.55
2023-04-14T05:35:05.558Z,1.88
2023-04-14T05:37:36.719Z,2.75
2023-04-14T05:40:12.126Z,2.47
2023-04-14T05:42:43.628Z,2.60
2023-04-14T05:45:14.674Z,2.67
2023-04-14T05:47:46.920Z,2.22
2023-04-14T05:50:19.291Z,1.90
2023-04-14T05:52:52.263Z,3.28
2023-04-14T05:55:26.040Z,3.15
2023-04-14T05:57:56.793Z,2.90
2023-04-14T06:00:28.086Z,3.35
2023-04-14T06:02:59.244Z,4.65
2023-04-14T06:05:30.422Z,3.95
2023-04-14T06:08:01.443Z,4.28
2023-04-14T06:10:35.869Z,3.67
2023-04-14T06:13:08.807Z,3.08
2023-04-14T06:15:40.112Z,3.10
2023-04-14T06:18:10.761Z,2.60
2023-04-14T06:20:42.375Z,2.55
2023-04-14T06:23:13.236Z,2.10
2023-04-14T06:25:46.499Z,3.03
2023-04-14T06:28:17.155Z,2.30
2023-04-14T06:30:48.003Z,2.55
2023-04-14T06:33:18.861Z,3.42
2023-04-14T06:35:49.544Z,3.72
2023-04-14T06:38:20.163Z,3.17
2023-04-14T06:40:54.078Z,2.55
2023-04-14T06:43:25.306Z,2.60
2023-04-14T06:45:56.125Z,2.92
2023-04-14T06:48:27.574Z,2.83
2023-04-14T06:50:58.921Z,2.25
2023-04-14T06:53:31.199Z,2.45
2023-04-14T06:56:09.348Z,1.73
2023-04-14T06:58:40.428Z,2.08
2023-04-14T07:01:11.433Z,1.80
2023-04-14T07:03:42.446Z,1.83
2023-04-14T07:06:16.930Z,1.85
2023-04-14T07:08:48.487Z,1.38
2023-04-14T07:11:21.709Z,1.20
2023-04-14T07:13:52.751Z,1.20
2023-04-14T07:16:23.630Z,1.20
2023-04-14T07:18:54.577Z,1.30
2023-04-14T07:21:26.643Z,1.02
2023-04-14T07:23:57.627Z,0.98
2023-04-14T07:26:31.166Z,0.93
2023-04-14T07:29:02.358Z,1.30
2023-04-14T07:31:34.876Z,0.98
2023-04-14T07:34:06.128Z,0.95
2023-04-14T07:36:37.387Z,1.27
2023-04-14T07:39:08.502Z,1.00
2023-04-14T07:41:41.884Z,1.00
2023-04-14T07:44:12.907Z,1.23
2023-04-14T07:46:44.147Z,1.73
2023-04-14T07:49:15.421Z,1.33
2023-04-14T07:51:46.063Z,1.10
2023-04-14T07:54:17.268Z,0.75
2023-04-14T07:56:51.299Z,0.88
2023-04-14T07:59:21.954Z,1.17
2023-04-14T08:01:52.757Z,0.95
2023-04-14T08:04:23.925Z,0.50
2023-04-14T08:06:54.654Z,0.68
2023-04-14T08:09:25.599Z,0.93
2023-04-14T08:11:59.756Z,0.65
2023-04-14T08:17:01.412Z,0.77
2023-04-14T08:19:33.976Z,0.52
2023-04-14T08:22:04.640Z,0.95
2023-04-14T08:24:37.942Z,1.10
2023-04-14T08:27:11.663Z,0.80
2023-04-14T08:29:42.389Z,1.40
2023-04-14T08:32:13.234Z,1.13
2023-04-14T08:35:35.080Z,0.70
2023-04-14T08:37:36.228Z,0.82
2023-04-14T08:40:13.271Z,0.77
2023-04-14T08:42:48.876Z,1.08
2023-04-14T08:45:20.140Z,0.93
2023-04-14T08:47:54.466Z,1.10
2023-04-14T08:50:35.024Z,0.98
2023-04-14T08:53:07.074Z,0.65
2023-04-14T08:55:43.170Z,0.40
2023-04-14T08:58:22.892Z,0.40
2023-04-14T09:00:55.975Z,0.82
2023-04-14T09:03:28.600Z,0.70
2023-04-14T09:06:00.372Z,0.80
2023-04-14T09:08:34.223Z,0.70
2023-04-14T09:11:08.242Z,0.70
2023-04-14T09:13:43.812Z,0.65
2023-04-14T09:16:15.964Z,1.00
2023-04-14T09:18:47.494Z,0.60
2023-04-14T09:21:29.378Z,0.80
2023-04-14T09:24:13.773Z,0.65
2023-04-14T09:26:45.253Z,0.75
2023-04-14T09:29:19.069Z,0.80
2023-04-14T09:31:50.818Z,1.05
2023-04-14T09:34:23.819Z,0.70
2023-04-14T09:37:07.149Z,0.50
2023-04-14T09:39:38.951Z,0.47
2023-04-14T09:42:11.978Z,0.57
2023-04-14T09:44:55.855Z,0.90
2023-04-14T09:47:27.031Z,0.73
2023-04-14T09:50:04.022Z,1.05
2023-04-14T09:52:42.773Z,0.52
2023-04-14T09:55:15.180Z,1.00
2023-04-14T09:57:48.377Z,1.35
2023-04-14T10:00:26.570Z,0.87
2023-04-14T10:03:01.750Z,0.70
2023-04-14T10:05:34.887Z,0.82
2023-04-14T10:08:06.972Z,0.63
2023-04-14T10:10:37.794Z,0.65
2023-04-14T10:13:08.772Z,1.00
2023-04-14T10:15:43.416Z,0.70
2023-04-14T10:18:15.336Z,0.50
2023-04-14T10:20:47.349Z,0.63
2023-04-14T10:23:21.390Z,0.40
2023-04-14T10:25:53.312Z,1.10
2023-04-14T10:28:27.964Z,0.80
2023-04-14T10:31:04.495Z,0.50
2023-04-14T10:33:35.552Z,0.50
2023-04-14T10:36:07.624Z,0.52
2023-04-14T10:38:43.138Z,0.70
2023-04-14T10:41:14.905Z,0.80
2023-04-14T10:43:47.152Z,0.70
2023-04-14T10:46:21.450Z,0.68
2023-04-14T10:48:52.555Z,0.82
2023-04-14T10:51:23.573Z,0.90
2023-04-14T10:53:55.809Z,0.70
2023-04-14T10:56:29.438Z,0.95
2023-04-14T10:59:01.866Z,1.08
2023-04-14T11:01:35.305Z,0.65
2023-04-14T11:04:21.022Z,0.40
2023-04-14T11:06:57.423Z,0.70
2023-04-14T11:09:38.207Z,0.40
2023-04-14T11:12:29.088Z,0.45
2023-04-14T11:15:05.326Z,0.70
2023-04-14T11:17:41.310Z,0.70
2023-04-14T11:20:18.101Z,0.70
2023-04-14T11:22:51.080Z,0.52
2023-04-14T11:25:25.719Z,0.50
2023-04-14T11:27:56.995Z,0.68
2023-04-14T11:30:28.152Z,1.30
2023-04-14T11:33:02.202Z,1.10
2023-04-14T11:35:33.858Z,1.00
2023-04-14T11:38:04.852Z,0.75
2023-04-14T11:40:36.839Z,0.70
2023-04-14T11:43:09.361Z,1.08
2023-04-14T11:45:45.761Z,0.57
2023-04-14T11:48:22.742Z,1.50
2023-04-14T11:50:53.937Z,0.70
2023-04-14T11:53:24.840Z,0.73
2023-04-14T11:55:57.785Z,0.43
2023-04-14T11:58:30.494Z,1.08
2023-04-14T12:01:04.536Z,0.70
2023-04-14T12:06:10.916Z,0.52
2023-04-14T12:08:41.715Z,0.43
2023-04-14T12:11:16.448Z,0.80
2023-04-14T12:13:48.571Z,0.70
2023-04-14T12:16:23.090Z,0.50
2023-04-14T12:18:57.188Z,0.20
2023-04-14T12:21:27.984Z,0.30
2023-04-14T12:23:59.187Z,0.40
2023-04-14T12:26:29.856Z,1.30
2023-04-14T12:29:02.375Z,0.70
2023-04-14T12:31:33.774Z,1.20
2023-04-14T12:34:08.495Z,1.20
2023-04-14T12:36:50.002Z,0.80
2023-04-14T12:39:22.400Z,0.60
2023-04-14T12:41:55.819Z,0.98
2023-04-14T12:44:30.732Z,0.50
2023-04-14T12:47:04.104Z,0.60
2023-04-14T12:49:40.787Z,1.70
2023-04-14T12:52:13.468Z,1.50
2023-04-14T12:54:52.267Z,1.13
2023-04-14T12:57:24.271Z,1.30
2023-04-14T12:59:55.495Z,1.27
2023-04-14T13:02:38.217Z,1.20
2023-04-14T13:05:31.764Z,1.08
2023-04-14T13:08:02.933Z,1.20
2023-04-14T13:10:33.790Z,1.45
2023-04-14T13:13:05.378Z,1.10
2023-04-14T13:16:13.108Z,1.48
2023-04-14T13:18:30.134Z,1.20
2023-04-14T13:21:06.007Z,1.67
2023-04-14T13:23:37.933Z,1.13
2023-04-14T13:26:11.240Z,1.65
2023-04-14T13:28:42.757Z,1.50
2023-04-14T13:31:15.983Z,1.70
2023-04-14T13:33:47.503Z,1.07
2023-04-14T13:36:25.370Z,1.83
2023-04-14T13:38:57.956Z,1.88
2023-04-14T13:41:29.254Z,2.08
2023-04-14T13:44:38.055Z,1.73
2023-04-14T13:47:24.249Z,1.92
2023-04-14T13:49:59.020Z,1.70
2023-04-14T13:52:38.724Z,2.13
2023-04-14T13:55:13.065Z,1.20
2023-04-14T13:57:43.928Z,1.40
2023-04-14T14:00:17.959Z,0.90
2023-04-14T14:02:49.959Z,0.60
2023-04-14T14:05:21.267Z,0.98
2023-04-14T14:07:52.530Z,1.20
2023-04-14T14:10:29.934Z,1.00
2023-04-14T14:13:08.374Z,1.08
2023-04-14T14:15:41.621Z,1.00
2023-04-14T14:18:13.819Z,1.65
2023-04-14T14:20:45.156Z,1.38
2023-04-14T14:23:16.827Z,1.20
2023-04-14T14:25:51.325Z,1.98
2023-04-14T14:28:24.027Z,1.55
2023-04-14T14:30:55.022Z,1.67
2023-04-14T14:33:25.651Z,1.60
2023-04-14T14:35:57.236Z,1.40
2023-04-14T14:38:28.004Z,1.15
2023-04-14T14:41:03.101Z,1.35
2023-04-14T14:43:34.467Z,1.20
2023-04-14T14:46:06.104Z,1.13
2023-04-14T14:48:39.228Z,0.85
2023-04-14T14:51:11.589Z,1.17
2023-04-14T14:53:42.636Z,1.08
2023-04-14T14:56:16.097Z,0.57
2023-04-14T14:58:47.989Z,0.75
2023-04-14T15:01:19.263Z,0.50
2023-04-14T15:03:53.576Z,0.70
2023-04-14T15:06:28.872Z,0.30
2023-04-14T15:08:59.534Z,0.20
2023-04-14T15:11:35.116Z,0.70
2023-04-14T15:14:06.339Z,0.43
2023-04-14T15:16:37.476Z,0.70
2023-04-14T15:19:08.526Z,0.30
2023-04-14T15:21:39.214Z,0.40
2023-04-14T15:24:10.222Z,0.50
2023-04-14T15:26:43.958Z,0.40
2023-04-14T15:29:14.582Z,0.40
2023-04-14T15:31:45.308Z,0.30
2023-04-14T15:34:16.013Z,0.30
2023-04-14T15:36:47.230Z,0.22
2023-04-14T15:39:18.272Z,0.35
2023-04-14T15:41:52.304Z,0.57
2023-04-14T15:44:23.100Z,0.30
2023-04-14T15:46:53.653Z,0.25
2023-04-14T15:49:24.636Z,0.20
2023-04-14T15:51:57.248Z,0.30
2023-04-14T15:54:28.086Z,0.30
2023-04-14T15:57:02.499Z,0.40
2023-04-14T15:59:34.046Z,0.30
2023-04-14T16:02:04.982Z,0.17
2023-04-14T16:04:36.620Z,0.20
2023-04-14T16:07:07.585Z,0.20
2023-04-14T16:09:38.838Z,0.30
2023-04-14T16:12:12.287Z,0.43
2023-04-14T16:14:43.320Z,0.30
2023-04-14T16:17:14.354Z,0.50
2023-04-14T16:19:45.050Z,0.22
2023-04-14T16:22:15.886Z,0.50
2023-04-14T16:24:46.824Z,0.55
2023-04-14T16:27:20.382Z,0.95
2023-04-14T16:29:51.173Z,0.95
2023-04-14T16:32:21.905Z,0.70
2023-04-14T16:34:52.798Z,0.75
2023-04-14T16:37:25.915Z,0.73
2023-04-14T16:39:57.869Z,0.82
2023-04-14T16:42:31.109Z,0.43
2023-04-14T16:45:01.948Z,0.60
2023-04-14T16:47:32.615Z,0.82
2023-04-14T16:50:03.433Z,0.57
2023-04-14T16:52:35.212Z,0.55
2023-04-14T16:55:06.053Z,1.02
2023-04-14T16:57:39.302Z,1.25
2023-04-14T17:00:12.296Z,0.63
2023-04-14T17:02:43.803Z,0.60
2023-04-14T17:05:16.332Z,0.82
2023-04-14T17:07:47.200Z,1.00
2023-04-14T17:10:18.352Z,1.23
2023-04-14T17:12:52.751Z,1.38
2023-04-14T17:17:54.833Z,1.20
2023-04-14T17:20:25.829Z,0.80
2023-04-14T17:22:57.984Z,1.40
2023-04-14T17:25:29.403Z,1.20
2023-04-14T17:28:02.973Z,1.02
2023-04-14T17:30:34.984Z,1.08
2023-04-14T17:33:10.614Z,1.52
2023-04-14T17:35:41.496Z,1.00
2023-04-14T17:38:12.193Z,1.00
2023-04-14T17:40:42.914Z,1.17
2023-04-14T17:43:16.190Z,1.40
2023-04-14T17:45:50.649Z,0.97
2023-04-14T17:48:21.676Z,0.60
2023-04-14T17:50:53.124Z,0.85
2023-04-14T17:53:23.854Z,0.95
2023-04-14T17:55:55.024Z,0.90
2023-04-14T17:58:28.924Z,0.60
2023-04-14T18:00:59.863Z,1.10
2023-04-14T18:03:30.934Z,0.80
2023-04-14T18:06:01.928Z,1.10
2023-04-14T18:08:32.583Z,1.02
2023-04-14T18:11:03.355Z,1.02
2023-04-14T18:13:36.573Z,1.00
2023-04-14T18:16:08.171Z,1.03
2023-04-14T18:18:39.626Z,1.00
2023-04-14T18:21:10.942Z,1.27
2023-04-14T18:23:42.097Z,1.00
2023-04-14T18:28:49.183Z,0.70
2023-04-14T18:31:20.019Z,0.95
2023-04-14T18:33:51.198Z,1.02
2023-04-14T18:36:21.991Z,1.63
2023-04-14T18:38:52.786Z,1.15
2023-04-14T18:41:23.485Z,1.10
2023-04-14T18:43:56.831Z,1.65
2023-04-14T18:46:27.705Z,1.35
2023-04-14T18:48:58.771Z,1.10
2023-04-14T18:51:29.670Z,1.53
2023-04-14T18:54:03.913Z,1.65
2023-04-14T18:56:34.750Z,1.38
2023-04-14T18:59:08.102Z,1.05
2023-04-14T19:01:39.535Z,2.00
2023-04-14T19:04:10.584Z,2.30
2023-04-14T19:06:41.572Z,1.85
2023-04-14T19:09:12.257Z,1.73
2023-04-14T19:11:43.222Z,1.40
2023-04-14T19:14:16.572Z,1.20
2023-04-14T19:16:48.044Z,1.13
2023-04-14T19:19:19.532Z,1.08
2023-04-14T19:21:50.150Z,1.13
2023-04-14T19:24:21.585Z,1.20
2023-04-14T19:26:52.305Z,1.02
2023-04-14T19:29:25.695Z,1.20
2023-04-14T19:31:56.731Z,1.17
2023-04-14T19:34:27.745Z,1.02
2023-04-14T19:36:58.552Z,1.13
2023-04-14T19:39:29.660Z,1.10
2023-04-14T19:42:00.403Z,1.10
2023-04-14T19:44:35.701Z,1.20
2023-04-14T19:47:06.594Z,1.42
2023-04-14T19:49:37.727Z,1.08
2023-04-14T19:52:09.152Z,1.38
2023-04-14T19:54:40.828Z,0.98
2023-04-14T19:57:11.585Z,1.30
2023-04-14T19:59:45.006Z,1.80
2023-04-14T20:02:15.985Z,1.23
2023-04-14T20:04:48.747Z,1.55
2023-04-14T20:07:19.342Z,1.52
2023-04-14T20:09:50.094Z,1.48
2023-04-14T20:12:21.080Z,1.60
2023-04-14T20:14:54.372Z,1.40
2023-04-14T20:17:27.513Z,2.00
2023-04-14T20:19:58.432Z,1.80
2023-04-14T20:22:29.038Z,2.25
2023-04-14T20:25:00.245Z,1.95
2023-04-14T20:27:31.906Z,1.92
2023-04-14T20:30:05.623Z,1.80
2023-04-14T20:32:36.579Z,1.50
2023-04-14T20:35:08.129Z,2.42
2023-04-14T20:37:38.732Z,2.33
2023-04-14T20:40:10.952Z,3.15
2023-04-14T20:42:41.500Z,1.90
2023-04-14T20:45:15.495Z,2.40
2023-04-14T20:47:46.885Z,2.80
2023-04-14T20:50:17.959Z,2.28
2023-04-14T20:52:49.121Z,2.05
2023-04-14T20:55:21.052Z,1.98
2023-04-14T20:57:51.800Z,2.40
2023-04-14T21:00:25.411Z,1.70
2023-04-14T21:02:56.318Z,1.98
2023-04-14T21:05:27.231Z,1.77
2023-04-14T21:07:58.053Z,1.25
2023-04-14T21:10:29.059Z,1.90
2023-04-14T21:15:26.455Z,2.00
2023-04-14T21:15:56.426Z,2.22
2023-04-14T21:18:27.803Z,2.88
2023-04-14T21:20:58.622Z,1.80
2023-04-14T21:23:29.415Z,2.03
2023-04-14T21:26:00.143Z,1.80
2023-04-14T21:28:31.587Z,1.98
2023-04-14T21:31:05.460Z,2.15
2023-04-14T21:33:36.420Z,1.48
2023-04-14T21:36:07.514Z,1.42
2023-04-14T21:38:38.806Z,1.58
2023-04-14T21:41:10.429Z,1.83
2023-04-14T21:43:41.938Z,2.00
2023-04-14T21:46:15.508Z,2.08
2023-04-14T21:48:46.488Z,1.95
2023-04-14T21:51:18.796Z,1.80
2023-04-14T21:53:49.775Z,1.80
2023-04-14T21:56:20.840Z,1.38
2023-04-14T21:58:51.470Z,1.73
2023-04-14T22:01:25.096Z,1.80
2023-04-14T22:03:56.219Z,2.00
2023-04-14T22:06:28.221Z,1.33
2023-04-14T22:09:00.315Z,1.13
2023-04-14T22:11:31.629Z,1.10
2023-04-14T22:14:03.043Z,1.30
2023-04-14T22:16:37.397Z,1.27
2023-04-14T22:21:39.448Z,1.55
2023-04-14T22:24:10.586Z,1.65
2023-04-14T22:26:41.945Z,1.20
2023-04-14T22:29:12.626Z,1.48
2023-04-14T22:31:46.108Z,0.88
2023-04-14T22:34:18.260Z,1.20
2023-04-14T22:36:50.527Z,1.13
2023-04-14T22:39:22.671Z,0.68
2023-04-14T22:41:54.765Z,0.95
2023-04-14T22:44:26.372Z,0.80
2023-04-14T22:47:01.778Z,0.80
2023-04-14T22:49:33.756Z,1.05
2023-04-14T22:52:06.147Z,0.88
2023-04-14T22:54:38.075Z,0.98
2023-04-14T22:57:11.373Z,1.05
2023-04-14T22:59:43.650Z,1.33
2023-04-14T23:02:18.184Z,1.00
2023-04-14T23:04:50.402Z,1.05
2023-04-14T23:07:22.428Z,0.63
2023-04-14T23:09:53.928Z,0.80
2023-04-14T23:12:28.279Z,0.70
2023-04-14T23:15:00.206Z,1.42
2023-04-14T23:17:36.253Z,1.00
2023-04-14T23:20:07.628Z,1.30
2023-04-14T23:22:38.696Z,1.30
2023-04-14T23:25:10.853Z,0.90
2023-04-14T23:27:41.560Z,0.90
2023-04-14T23:30:13.489Z,1.67
2023-04-14T23:32:49.463Z,1.55
2023-04-14T23:35:20.618Z,1.10
2023-04-14T23:37:51.551Z,0.88
2023-04-14T23:40:22.755Z,0.65
2023-04-14T23:42:56.181Z,1.00
2023-04-14T23:45:27.407Z,1.02
2023-04-14T23:48:00.945Z,0.65
2023-04-14T23:51:01.525Z,1.00
2023-04-14T23:53:22.895Z,0.80
2023-04-14T23:55:54.104Z,0.95
2023-04-14T23:58:26.998Z,1.42
